Flight Track Log - Related Links

Times and Time Zones

All times are in EDT time to prevent confusion due to time zone crossing. See the SKW6534 flight status page for this flight to view local times or setup timezone preferences in your user account.


Time Position Orientation Groundspeed Altitude Reporting Facility
EDT Latitude Longitude Course Direction KTS MPH feet Rate Location/Type
Thu 03:19:16 PM 43.4478 -112.0592 143° Southeast 223 257 8,100  Level Salt Lake Center
Thu 03:20:00 PM 43.1353 -111.3674 127° Southeast  Level FlightAware Approximate
Thu 03:20:18 PM 43.4308 -111.9681 104° East 248 285 10,500  Level Salt Lake Center
Thu 03:21:00 PM 43.0761 -111.2441 122° Southeast  Level FlightAware Approximate
Thu 03:21:19 PM 43.3931 -111.8475 113° Southeast 288 331 13,400  Level Salt Lake Center
Thu 03:22:00 PM 43.0161 -111.1219 130° Southeast  Level FlightAware Approximate
Thu 03:22:21 PM 43.3461 -111.7436 122° Southeast 324 373 15,400  Level Salt Lake Center
Thu 03:23:00 PM 42.9467 -111.0090 130° Southeast  Level FlightAware Approximate
Thu 03:23:23 PM 43.2819 -111.6194 125° Southeast 348 400 16,900  Level Salt Lake Center
Thu 03:24:25 PM 43.2183 -111.5067 128° Southeast 373 429 18,000 1,403 Climbing Salt Lake Center
Thu 03:25:27 PM 43.1431 -111.3669 126° Southeast 401 461 19,800 1,645 Climbing Salt Lake Center
Thu 03:26:29 PM 43.0781 -111.2447 126° Southeast 412 474 21,400 1,561 Climbing Salt Lake Center
Thu 03:27:30 PM 43.0011 -111.1033 127° Southeast 416 479 23,000 1,415 Climbing Salt Lake Center
Thu 03:28:32 PM 42.9339 -110.9828 127° Southeast 417 480 24,300 1,258 Climbing Salt Lake Center
Thu 03:29:34 PM 42.8550 -110.8400 127° Southeast 422 486 25,600 1,065 Climbing Salt Lake Center
Thu 03:30:36 PM 42.7867 -110.7161 127° Southeast 427 491 26,500 829 Climbing Salt Lake Center
Thu 03:31:37 PM 42.7167 -110.5919 127° Southeast 432 497 27,300 829 Climbing Salt Lake Center
Thu 03:32:39 PM 42.6325 -110.4419 127° Southeast 439 505 28,200 726 Climbing Salt Lake Center
Thu 03:33:41 PM 42.5603 -110.3131 127° Southeast 447 514 28,800 629 Climbing Salt Lake Center
Thu 03:34:43 PM 42.4753 -110.1628 127° Southeast 451 519 29,500 532 Climbing Salt Lake Center
Thu 03:35:45 PM 42.4008 -110.0322 128° Southeast 456 525 29,900 488 Climbing Salt Lake Center
Thu 03:36:46 PM 42.3158 -109.8808 127° Southeast 454 522 30,500 537 Climbing Salt Lake Center
Thu 03:37:48 PM 42.2411 -109.7503 128° Southeast 457 526 31,000 677 Climbing Salt Lake Center
Thu 03:38:50 PM 42.1683 -109.6239 128° Southeast 448 516 31,900 968 Climbing Salt Lake Center
Thu 03:39:52 PM 42.0853 -109.4781 127° Southeast 440 506 33,000 537 Climbing Salt Lake Center
Thu 03:40:53 PM 42.0133 -109.3542 128° Southeast 437 503 33,000  Level Salt Lake Center
Thu 03:41:55 PM 41.9261 -109.2042 128° Southeast 450 518 33,000  Level Salt Lake Center
Thu 03:42:57 PM 41.8489 -109.0719 128° Southeast 463 533 33,000  Level Salt Lake Center
Thu 03:43:59 PM 41.7581 -108.9175 128° Southeast 468 539 33,000  Level Salt Lake Center
Thu 03:45:00 PM 41.6797 -108.7833 128° Southeast 472 543 33,000  Level Salt Lake Center
Thu 03:46:02 PM 41.6008 -108.6497 128° Southeast 475 547 33,000  Level Salt Lake Center
Thu 03:47:04 PM 41.5081 -108.4933 128° Southeast 478 550 33,000  Level Salt Lake Center
Thu 03:48:06 PM 41.4278 -108.3594 129° Southeast 481 554 33,000  Level Salt Lake Center
Thu 03:48:44 PM 41.3739 -108.2689 128° Southeast 481 554 33,000  Level Denver Center
Thu 03:49:46 PM 41.2986 -108.1008 121° Southeast 471 542 33,000  Level Denver Center
Thu 03:50:09 PM 41.2803 -108.0517 116° Southeast 473 544 33,000  Level Salt Lake Center
Thu 03:51:11 PM 41.2217 -107.9036 118° Southeast 474 545 33,000  Level Salt Lake Center
Thu 03:51:49 PM 41.1822 -107.8061 118° Southeast 469 540 33,000  Level Denver Center
Thu 03:52:51 PM 41.1158 -107.6381 118° Southeast 462 532 33,000  Level Denver Center
Thu 03:53:52 PM 41.0594 -107.4944 117° Southeast 460 529 33,000  Level Denver Center
Thu 03:54:54 PM 40.9928 -107.3269 118° Southeast 460 529 33,000  Level Denver Center
Thu 03:55:56 PM 40.9356 -107.1858 118° Southeast 457 526 33,000  Level Denver Center
Thu 03:56:57 PM 40.8686 -107.0217 118° Southeast 455 524 33,000  Level Denver Center
Thu 03:57:59 PM 40.8106 -106.8817 119° Southeast 455 524 33,000  Level Denver Center
Thu 03:59:01 PM 40.7500 -106.7297 118° Southeast 450 518 33,000  Level Denver Center
Thu 04:00:02 PM 40.6861 -106.5764 119° Southeast 453 521 33,000  Level Denver Center
Thu 04:01:04 PM 40.6242 -106.4256 118° Southeast 458 527 33,000 -48 Level Denver Center
Thu 04:02:06 PM 40.5650 -106.2839 119° Southeast 460 529 32,900 -927 Descending Denver Center
Thu 04:03:07 PM 40.4961 -106.1183 119° Southeast 464 534 31,100 -1,854 Descending Denver Center
Thu 04:04:09 PM 40.4411 -105.9717 116° Southeast 446 513 29,100 -2,032 Descending Denver Center
Thu 04:05:11 PM 40.4186 -105.8217 101° East 414 476 26,900 -2,195 Descending Denver Center
Thu 04:06:12 PM 40.3956 -105.6772 102° East 405 466 24,600 -1,951 Descending Denver Center
Thu 04:07:14 PM 40.3731 -105.5406 102° East 384 442 22,900 -1,742 Descending Denver Center
Thu 04:08:16 PM 40.3364 -105.4028 109° East 378 435 21,000 -1,854 Descending Denver Center
Thu 04:09:17 PM 40.2664 -105.2953 130° Southeast 386 444 19,100 -1,951 Descending Denver Center
Thu 04:10:19 PM 40.1925 -105.1772 129° Southeast 385 443 17,000 -1,790 Descending Denver Center
Thu 04:11:21 PM 40.1231 -105.0719 131° Southeast 377 434 15,400 -1,268 Descending Denver Center
Thu 04:12:22 PM 40.0556 -104.9672 130° Southeast 376 433 14,400 -1,024 Descending Denver Center
Thu 04:13:24 PM 39.9836 -104.8550 130° Southeast 375 432 13,300 -1,073 Descending Denver Center
Thu 04:14:25 PM 39.8997 -104.8081 157° South 344 396 12,200 -1,122 Descending Denver Center
Thu 04:15:27 PM 39.8044 -104.8083 180° South 313 360 11,000 -1,016 Descending Denver Center
Thu 04:16:29 PM 39.7292 -104.8111 182° South 267 307 10,100 -829 Descending Denver Center
Thu 04:17:30 PM 39.6719 -104.7778 156° South 253 291 9,300 -780 Descending Denver Center
Thu 04:18:32 PM 39.6744 -104.7017 88° East 193 222 8,500 -774 Descending Denver Center

Login

Don't have an account? Register now (free) for customized features, flight alerts, and more!